sensor_id;sensor_type;location;lat;lon;timestamp;P1;durP1;ratioP1;P2;durP2;ratioP2
20000;SDS011;10161;41.188;-8.642;2022-07-04T00:00:17;12.87;;;5.70;;
20000;SDS011;10161;41.188;-8.642;2022-07-04T00:02:45;17.80;;;9.37;;
20000;SDS011;10161;41.188;-8.642;2022-07-04T00:05:13;21.70;;;14.10;;
20000;SDS011;10161;41.188;-8.642;2022-07-04T00:07:41;26.67;;;18.30;;
20000;SDS011;10161;41.188;-8.642;2022-07-04T00:10:09;29.50;;;17.23;;
20000;SDS011;10161;41.188;-8.642;2022-07-04T00:12:38;20.90;;;11.43;;
20000;SDS011;10161;41.188;-8.642;2022-07-04T00:15:06;17.90;;;9.70;;
20000;SDS011;10161;41.188;-8.642;2022-07-04T00:17:34;17.07;;;8.93;;
20000;SDS011;10161;41.188;-8.642;2022-07-04T00:20:01;15.27;;;6.20;;
20000;SDS011;10161;41.188;-8.642;2022-07-04T00:25:06;10.43;;;6.20;;
20000;SDS011;10161;41.188;-8.642;2022-07-04T00:27:33;14.67;;;5.83;;
20000;SDS011;10161;41.188;-8.642;2022-07-04T00:33:23;25.60;;;10.80;;
20000;SDS011;10161;41.188;-8.642;2022-07-04T00:35:50;24.97;;;11.83;;
20000;SDS011;10161;41.188;-8.642;2022-07-04T00:38:17;24.80;;;13.20;;
20000;SDS011;10161;41.188;-8.642;2022-07-04T00:40:44;18.40;;;9.87;;
20000;SDS011;10161;41.188;-8.642;2022-07-04T00:43:11;17.67;;;8.83;;
20000;SDS011;10161;41.188;-8.642;2022-07-04T00:45:38;13.83;;;8.30;;
20000;SDS011;10161;41.188;-8.642;2022-07-04T00:48:05;24.63;;;16.20;;
20000;SDS011;10161;41.188;-8.642;2022-07-04T00:50:33;40.13;;;25.63;;
20000;SDS011;10161;41.188;-8.642;2022-07-04T00:53:01;69.37;;;41.53;;
20000;SDS011;10161;41.188;-8.642;2022-07-04T00:55:28;69.17;;;42.13;;
20000;SDS011;10161;41.188;-8.642;2022-07-04T00:57:55;32.80;;;21.37;;
20000;SDS011;10161;41.188;-8.642;2022-07-04T01:00:22;27.30;;;17.53;;
20000;SDS011;10161;41.188;-8.642;2022-07-04T01:02:49;19.60;;;12.70;;
20000;SDS011;10161;41.188;-8.642;2022-07-04T01:05:16;45.40;;;28.57;;
20000;SDS011;10161;41.188;-8.642;2022-07-04T01:07:44;75.33;;;46.37;;
20000;SDS011;10161;41.188;-8.642;2022-07-04T01:13:33;91.77;;;53.67;;
20000;SDS011;10161;41.188;-8.642;2022-07-04T01:16:00;63.63;;;37.83;;
20000;SDS011;10161;41.188;-8.642;2022-07-04T01:18:27;46.43;;;29.40;;
20000;SDS011;10161;41.188;-8.642;2022-07-04T01:20:56;40.43;;;25.07;;
20000;SDS011;10161;41.188;-8.642;2022-07-04T01:23:23;68.43;;;42.70;;
20000;SDS011;10161;41.188;-8.642;2022-07-04T01:25:50;96.63;;;55.30;;
20000;SDS011;10161;41.188;-8.642;2022-07-04T01:28:18;100.37;;;59.17;;
20000;SDS011;10161;41.188;-8.642;2022-07-04T01:30:46;81.00;;;44.27;;
20000;SDS011;10161;41.188;-8.642;2022-07-04T01:33:13;48.33;;;30.17;;
20000;SDS011;10161;41.188;-8.642;2022-07-04T01:35:42;40.77;;;23.00;;
20000;SDS011;10161;41.188;-8.642;2022-07-04T01:38:10;55.10;;;35.20;;
20000;SDS011;10161;41.188;-8.642;2022-07-04T01:40:38;77.53;;;51.60;;
20000;SDS011;10161;41.188;-8.642;2022-07-04T01:43:05;97.27;;;61.00;;
20000;SDS011;10161;41.188;-8.642;2022-07-04T01:45:32;88.20;;;56.23;;
20000;SDS011;10161;41.188;-8.642;2022-07-04T01:48:02;61.27;;;39.63;;
20000;SDS011;10161;41.188;-8.642;2022-07-04T01:50:42;39.80;;;25.97;;
20000;SDS011;10161;41.188;-8.642;2022-07-04T01:53:10;38.10;;;22.87;;
20000;SDS011;10161;41.188;-8.642;2022-07-04T01:55:37;23.20;;;14.90;;
20000;SDS011;10161;41.188;-8.642;2022-07-04T01:58:04;23.60;;;14.20;;
20000;SDS011;10161;41.188;-8.642;2022-07-04T02:00:31;24.77;;;14.30;;
20000;SDS011;10161;41.188;-8.642;2022-07-04T02:03:15;21.00;;;12.70;;
20000;SDS011;10161;41.188;-8.642;2022-07-04T02:05:42;18.90;;;11.17;;
20000;SDS011;10161;41.188;-8.642;2022-07-04T02:08:11;20.80;;;11.37;;
20000;SDS011;10161;41.188;-8.642;2022-07-04T02:10:38;14.30;;;10.20;;
20000;SDS011;10161;41.188;-8.642;2022-07-04T02:16:09;20.20;;;10.20;;
20000;SDS011;10161;41.188;-8.642;2022-07-04T02:18:36;18.20;;;10.80;;
20000;SDS011;10161;41.188;-8.642;2022-07-04T02:21:03;22.07;;;12.10;;
20000;SDS011;10161;41.188;-8.642;2022-07-04T02:23:32;61.50;;;35.00;;
20000;SDS011;10161;41.188;-8.642;2022-07-04T02:25:59;43.73;;;26.10;;
20000;SDS011;10161;41.188;-8.642;2022-07-04T02:28:26;35.67;;;21.07;;
20000;SDS011;10161;41.188;-8.642;2022-07-04T02:30:53;29.27;;;15.77;;
20000;SDS011;10161;41.188;-8.642;2022-07-04T02:33:19;22.23;;;13.40;;
20000;SDS011;10161;41.188;-8.642;2022-07-04T02:35:46;27.10;;;17.50;;
20000;SDS011;10161;41.188;-8.642;2022-07-04T02:38:13;30.87;;;16.63;;
20000;SDS011;10161;41.188;-8.642;2022-07-04T02:40:42;27.37;;;16.60;;
20000;SDS011;10161;41.188;-8.642;2022-07-04T02:43:09;28.30;;;17.37;;
20000;SDS011;10161;41.188;-8.642;2022-07-04T02:45:36;29.90;;;16.67;;
20000;SDS011;10161;41.188;-8.642;2022-07-04T02:48:03;24.57;;;12.60;;
20000;SDS011;10161;41.188;-8.642;2022-07-04T02:50:30;21.70;;;11.20;;
20000;SDS011;10161;41.188;-8.642;2022-07-04T02:52:57;16.87;;;11.33;;
20000;SDS011;10161;41.188;-8.642;2022-07-04T02:55:24;19.80;;;11.17;;
20000;SDS011;10161;41.188;-8.642;2022-07-04T03:00:47;28.37;;;16.40;;
20000;SDS011;10161;41.188;-8.642;2022-07-04T03:03:14;23.87;;;14.80;;
20000;SDS011;10161;41.188;-8.642;2022-07-04T03:05:41;43.10;;;23.33;;
20000;SDS011;10161;41.188;-8.642;2022-07-04T03:08:08;32.03;;;21.10;;
20000;SDS011;10161;41.188;-8.642;2022-07-04T03:10:35;25.70;;;17.47;;
20000;SDS011;10161;41.188;-8.642;2022-07-04T03:13:02;19.90;;;14.70;;
20000;SDS011;10161;41.188;-8.642;2022-07-04T03:15:30;18.17;;;12.10;;
20000;SDS011;10161;41.188;-8.642;2022-07-04T03:17:57;20.87;;;13.03;;
20000;SDS011;10161;41.188;-8.642;2022-07-04T03:20:24;19.90;;;13.13;;
20000;SDS011;10161;41.188;-8.642;2022-07-04T03:22:51;18.30;;;12.47;;
20000;SDS011;10161;41.188;-8.642;2022-07-04T03:25:19;19.30;;;14.23;;
20000;SDS011;10161;41.188;-8.642;2022-07-04T03:27:46;36.17;;;22.80;;
20000;SDS011;10161;41.188;-8.642;2022-07-04T03:30:13;54.10;;;36.90;;
20000;SDS011;10161;41.188;-8.642;2022-07-04T03:32:42;37.33;;;24.10;;
20000;SDS011;10161;41.188;-8.642;2022-07-04T03:35:09;20.90;;;17.27;;
20000;SDS011;10161;41.188;-8.642;2022-07-04T03:37:36;26.60;;;17.43;;
20000;SDS011;10161;41.188;-8.642;2022-07-04T03:40:03;21.30;;;16.80;;
20000;SDS011;10161;41.188;-8.642;2022-07-04T03:42:31;22.73;;;17.70;;
20000;SDS011;10161;41.188;-8.642;2022-07-04T03:44:58;23.90;;;17.47;;
20000;SDS011;10161;41.188;-8.642;2022-07-04T03:47:25;25.37;;;17.93;;
20000;SDS011;10161;41.188;-8.642;2022-07-04T03:49:53;22.70;;;18.27;;
20000;SDS011;10161;41.188;-8.642;2022-07-04T03:52:20;27.50;;;19.13;;
20000;SDS011;10161;41.188;-8.642;2022-07-04T03:54:47;26.07;;;19.00;;
20000;SDS011;10161;41.188;-8.642;2022-07-04T04:00:18;27.67;;;19.13;;
20000;SDS011;10161;41.188;-8.642;2022-07-04T04:02:45;28.00;;;19.93;;
20000;SDS011;10161;41.188;-8.642;2022-07-04T04:05:13;32.90;;;23.30;;
20000;SDS011;10161;41.188;-8.642;2022-07-04T04:07:56;29.50;;;23.60;;
20000;SDS011;10161;41.188;-8.642;2022-07-04T04:10:25;34.60;;;23.97;;
20000;SDS011;10161;41.188;-8.642;2022-07-04T04:12:52;35.93;;;25.67;;
20000;SDS011;10161;41.188;-8.642;2022-07-04T04:15:19;47.83;;;29.13;;
20000;SDS011;10161;41.188;-8.642;2022-07-04T04:17:46;48.87;;;28.03;;
20000;SDS011;10161;41.188;-8.642;2022-07-04T04:20:15;38.40;;;27.80;;
20000;SDS011;10161;41.188;-8.642;2022-07-04T04:22:42;39.13;;;28.97;;
20000;SDS011;10161;41.188;-8.642;2022-07-04T04:25:09;51.50;;;30.10;;
20000;SDS011;10161;41.188;-8.642;2022-07-04T04:27:36;36.77;;;26.43;;
20000;SDS011;10161;41.188;-8.642;2022-07-04T04:30:03;40.67;;;28.17;;
20000;SDS011;10161;41.188;-8.642;2022-07-04T04:32:31;34.70;;;26.50;;
20000;SDS011;10161;41.188;-8.642;2022-07-04T04:34:58;41.60;;;27.33;;
20000;SDS011;10161;41.188;-8.642;2022-07-04T04:37:26;34.00;;;25.43;;
20000;SDS011;10161;41.188;-8.642;2022-07-04T04:39:53;31.97;;;24.17;;
20000;SDS011;10161;41.188;-8.642;2022-07-04T04:42:20;38.97;;;29.37;;
20000;SDS011;10161;41.188;-8.642;2022-07-04T04:44:47;39.73;;;28.97;;
20000;SDS011;10161;41.188;-8.642;2022-07-04T04:47:14;55.97;;;35.27;;
20000;SDS011;10161;41.188;-8.642;2022-07-04T04:49:41;66.90;;;44.53;;
20000;SDS011;10161;41.188;-8.642;2022-07-04T04:52:14;96.90;;;48.30;;
20000;SDS011;10161;41.188;-8.642;2022-07-04T04:54:42;80.77;;;51.60;;
20000;SDS011;10161;41.188;-8.642;2022-07-04T04:57:09;53.20;;;36.20;;
20000;SDS011;10161;41.188;-8.642;2022-07-04T05:02:44;42.77;;;29.80;;
20000;SDS011;10161;41.188;-8.642;2022-07-04T05:05:11;40.77;;;29.80;;
20000;SDS011;10161;41.188;-8.642;2022-07-04T05:07:38;43.63;;;30.90;;
20000;SDS011;10161;41.188;-8.642;2022-07-04T05:10:07;36.87;;;27.50;;
20000;SDS011;10161;41.188;-8.642;2022-07-04T05:12:35;41.80;;;27.67;;
20000;SDS011;10161;41.188;-8.642;2022-07-04T05:15:02;39.57;;;27.70;;
20000;SDS011;10161;41.188;-8.642;2022-07-04T05:17:30;76.27;;;50.27;;
20000;SDS011;10161;41.188;-8.642;2022-07-04T05:19:57;116.37;;;70.47;;
20000;SDS011;10161;41.188;-8.642;2022-07-04T05:22:24;111.40;;;73.17;;
20000;SDS011;10161;41.188;-8.642;2022-07-04T05:24:51;79.57;;;51.40;;
20000;SDS011;10161;41.188;-8.642;2022-07-04T05:27:19;73.00;;;48.20;;
20000;SDS011;10161;41.188;-8.642;2022-07-04T05:29:46;68.27;;;44.23;;
20000;SDS011;10161;41.188;-8.642;2022-07-04T05:35:09;49.20;;;33.80;;
20000;SDS011;10161;41.188;-8.642;2022-07-04T05:37:36;37.90;;;29.20;;
20000;SDS011;10161;41.188;-8.642;2022-07-04T05:40:04;56.13;;;30.50;;
20000;SDS011;10161;41.188;-8.642;2022-07-04T05:42:34;41.23;;;28.67;;
20000;SDS011;10161;41.188;-8.642;2022-07-04T05:45:02;48.00;;;33.47;;
20000;SDS011;10161;41.188;-8.642;2022-07-04T05:47:29;39.67;;;28.03;;
20000;SDS011;10161;41.188;-8.642;2022-07-04T05:49:56;50.50;;;33.60;;
20000;SDS011;10161;41.188;-8.642;2022-07-04T05:52:23;50.33;;;32.00;;
20000;SDS011;10161;41.188;-8.642;2022-07-04T05:54:50;39.47;;;28.37;;
20000;SDS011;10161;41.188;-8.642;2022-07-04T05:57:17;54.83;;;31.60;;
20000;SDS011;10161;41.188;-8.642;2022-07-04T05:59:46;48.13;;;31.23;;
20000;SDS011;10161;41.188;-8.642;2022-07-04T06:02:13;49.00;;;32.13;;
20000;SDS011;10161;41.188;-8.642;2022-07-04T06:04:40;47.10;;;32.57;;
20000;SDS011;10161;41.188;-8.642;2022-07-04T06:07:08;54.37;;;33.13;;
20000;SDS011;10161;41.188;-8.642;2022-07-04T06:09:35;43.70;;;28.80;;
20000;SDS011;10161;41.188;-8.642;2022-07-04T06:12:02;36.67;;;25.53;;
20000;SDS011;10161;41.188;-8.642;2022-07-04T06:14:30;45.97;;;28.30;;
20000;SDS011;10161;41.188;-8.642;2022-07-04T06:16:58;45.03;;;30.67;;
20000;SDS011;10161;41.188;-8.642;2022-07-04T06:19:25;44.80;;;29.13;;
20000;SDS011;10161;41.188;-8.642;2022-07-04T06:21:52;42.13;;;28.97;;
20000;SDS011;10161;41.188;-8.642;2022-07-04T06:24:19;49.10;;;30.00;;
20000;SDS011;10161;41.188;-8.642;2022-07-04T06:26:46;42.30;;;29.37;;
20000;SDS011;10161;41.188;-8.642;2022-07-04T06:29:16;38.17;;;26.10;;
20000;SDS011;10161;41.188;-8.642;2022-07-04T06:31:43;45.23;;;29.53;;
20000;SDS011;10161;41.188;-8.642;2022-07-04T06:34:11;43.30;;;27.60;;
20000;SDS011;10161;41.188;-8.642;2022-07-04T06:37:07;43.27;;;28.50;;
20000;SDS011;10161;41.188;-8.642;2022-07-04T06:39:34;37.47;;;26.83;;
20000;SDS011;10161;41.188;-8.642;2022-07-04T06:42:01;44.23;;;27.97;;
20000;SDS011;10161;41.188;-8.642;2022-07-04T06:44:30;31.33;;;23.07;;
20000;SDS011;10161;41.188;-8.642;2022-07-04T06:46:56;38.20;;;26.40;;
20000;SDS011;10161;41.188;-8.642;2022-07-04T06:49:25;49.80;;;30.63;;
20000;SDS011;10161;41.188;-8.642;2022-07-04T06:51:53;47.30;;;29.43;;
20000;SDS011;10161;41.188;-8.642;2022-07-04T06:54:20;48.83;;;30.30;;
20000;SDS011;10161;41.188;-8.642;2022-07-04T06:56:47;43.63;;;29.83;;
20000;SDS011;10161;41.188;-8.642;2022-07-04T06:59:14;51.37;;;30.73;;
20000;SDS011;10161;41.188;-8.642;2022-07-04T07:01:41;41.10;;;27.47;;
20000;SDS011;10161;41.188;-8.642;2022-07-04T07:04:08;37.47;;;26.80;;
20000;SDS011;10161;41.188;-8.642;2022-07-04T07:06:37;37.83;;;26.40;;
20000;SDS011;10161;41.188;-8.642;2022-07-04T07:09:04;42.87;;;25.57;;
20000;SDS011;10161;41.188;-8.642;2022-07-04T07:11:31;36.23;;;24.87;;
20000;SDS011;10161;41.188;-8.642;2022-07-04T07:16:42;47.57;;;29.40;;
20000;SDS011;10161;41.188;-8.642;2022-07-04T07:19:09;47.70;;;30.33;;
20000;SDS011;10161;41.188;-8.642;2022-07-04T07:21:38;43.40;;;27.57;;
20000;SDS011;10161;41.188;-8.642;2022-07-04T07:24:05;46.77;;;31.43;;
20000;SDS011;10161;41.188;-8.642;2022-07-04T07:26:32;40.30;;;27.50;;
20000;SDS011;10161;41.188;-8.642;2022-07-04T07:28:59;45.00;;;27.77;;
20000;SDS011;10161;41.188;-8.642;2022-07-04T07:31:26;40.90;;;26.67;;
20000;SDS011;10161;41.188;-8.642;2022-07-04T07:33:53;39.77;;;25.30;;
20000;SDS011;10161;41.188;-8.642;2022-07-04T07:36:20;37.07;;;26.20;;
20000;SDS011;10161;41.188;-8.642;2022-07-04T07:38:49;39.03;;;23.87;;
20000;SDS011;10161;41.188;-8.642;2022-07-04T07:41:17;42.53;;;29.17;;
20000;SDS011;10161;41.188;-8.642;2022-07-04T07:43:44;37.00;;;25.00;;
20000;SDS011;10161;41.188;-8.642;2022-07-04T07:46:11;37.50;;;24.23;;
20000;SDS011;10161;41.188;-8.642;2022-07-04T07:48:38;39.63;;;24.57;;
20000;SDS011;10161;41.188;-8.642;2022-07-04T07:51:05;32.63;;;21.80;;
20000;SDS011;10161;41.188;-8.642;2022-07-04T07:53:32;32.77;;;23.37;;
20000;SDS011;10161;41.188;-8.642;2022-07-04T07:56:01;29.07;;;21.73;;
20000;SDS011;10161;41.188;-8.642;2022-07-04T07:58:28;32.77;;;23.30;;
20000;SDS011;10161;41.188;-8.642;2022-07-04T08:00:55;27.70;;;20.83;;
20000;SDS011;10161;41.188;-8.642;2022-07-04T08:03:22;33.17;;;23.43;;
20000;SDS011;10161;41.188;-8.642;2022-07-04T08:06:06;30.97;;;21.80;;
20000;SDS011;10161;41.188;-8.642;2022-07-04T08:08:33;30.23;;;21.17;;
20000;SDS011;10161;41.188;-8.642;2022-07-04T08:11:04;26.90;;;19.50;;
20000;SDS011;10161;41.188;-8.642;2022-07-04T08:13:33;29.47;;;19.70;;
20000;SDS011;10161;41.188;-8.642;2022-07-04T08:16:00;23.60;;;18.20;;
20000;SDS011;10161;41.188;-8.642;2022-07-04T08:18:28;32.10;;;22.23;;
20000;SDS011;10161;41.188;-8.642;2022-07-04T08:20:55;38.60;;;24.43;;
20000;SDS011;10161;41.188;-8.642;2022-07-04T08:23:22;27.33;;;19.67;;
20000;SDS011;10161;41.188;-8.642;2022-07-04T08:25:49;28.33;;;21.70;;
20000;SDS011;10161;41.188;-8.642;2022-07-04T08:28:17;31.43;;;21.57;;
20000;SDS011;10161;41.188;-8.642;2022-07-04T08:30:44;31.53;;;21.93;;
20000;SDS011;10161;41.188;-8.642;2022-07-04T08:33:11;25.27;;;19.00;;
20000;SDS011;10161;41.188;-8.642;2022-07-04T08:35:38;23.77;;;17.97;;
20000;SDS011;10161;41.188;-8.642;2022-07-04T08:38:05;19.87;;;16.67;;
20000;SDS011;10161;41.188;-8.642;2022-07-04T08:40:32;26.90;;;19.43;;
20000;SDS011;10161;41.188;-8.642;2022-07-04T08:43:00;41.07;;;27.60;;
20000;SDS011;10161;41.188;-8.642;2022-07-04T08:45:31;40.53;;;29.03;;
20000;SDS011;10161;41.188;-8.642;2022-07-04T08:47:59;36.33;;;25.70;;
20000;SDS011;10161;41.188;-8.642;2022-07-04T08:50:29;30.80;;;21.80;;
20000;SDS011;10161;41.188;-8.642;2022-07-04T08:52:58;30.50;;;22.23;;
20000;SDS011;10161;41.188;-8.642;2022-07-04T08:55:26;35.43;;;25.87;;
20000;SDS011;10161;41.188;-8.642;2022-07-04T08:58:11;36.50;;;24.53;;
20000;SDS011;10161;41.188;-8.642;2022-07-04T09:00:57;33.70;;;24.30;;
20000;SDS011;10161;41.188;-8.642;2022-07-04T09:03:26;34.37;;;25.80;;
20000;SDS011;10161;41.188;-8.642;2022-07-04T09:05:54;32.53;;;22.43;;
20000;SDS011;10161;41.188;-8.642;2022-07-04T09:08:21;27.50;;;21.23;;
20000;SDS011;10161;41.188;-8.642;2022-07-04T09:10:49;27.30;;;21.03;;
20000;SDS011;10161;41.188;-8.642;2022-07-04T09:13:16;23.77;;;19.17;;
20000;SDS011;10161;41.188;-8.642;2022-07-04T09:15:45;25.67;;;19.17;;
20000;SDS011;10161;41.188;-8.642;2022-07-04T09:18:21;22.87;;;17.53;;
20000;SDS011;10161;41.188;-8.642;2022-07-04T09:20:49;21.80;;;17.80;;
20000;SDS011;10161;41.188;-8.642;2022-07-04T09:23:17;34.43;;;22.73;;
20000;SDS011;10161;41.188;-8.642;2022-07-04T09:25:45;24.73;;;20.77;;
20000;SDS011;10161;41.188;-8.642;2022-07-04T09:28:12;37.43;;;23.97;;
20000;SDS011;10161;41.188;-8.642;2022-07-04T09:30:53;29.67;;;22.10;;
20000;SDS011;10161;41.188;-8.642;2022-07-04T09:33:22;31.57;;;23.07;;
20000;SDS011;10161;41.188;-8.642;2022-07-04T09:35:49;31.77;;;23.47;;
20000;SDS011;10161;41.188;-8.642;2022-07-04T09:38:21;33.50;;;23.37;;
20000;SDS011;10161;41.188;-8.642;2022-07-04T09:40:52;33.70;;;23.87;;
20000;SDS011;10161;41.188;-8.642;2022-07-04T09:43:36;24.77;;;20.77;;
20000;SDS011;10161;41.188;-8.642;2022-07-04T09:46:03;30.53;;;22.90;;
20000;SDS011;10161;41.188;-8.642;2022-07-04T09:51:18;32.00;;;23.70;;
20000;SDS011;10161;41.188;-8.642;2022-07-04T09:54:11;30.70;;;22.90;;
20000;SDS011;10161;41.188;-8.642;2022-07-04T09:56:47;28.30;;;22.40;;
20000;SDS011;10161;41.188;-8.642;2022-07-04T09:59:15;29.63;;;23.60;;
20000;SDS011;10161;41.188;-8.642;2022-07-04T10:01:42;30.43;;;23.10;;
20000;SDS011;10161;41.188;-8.642;2022-07-04T10:04:10;26.97;;;20.30;;
20000;SDS011;10161;41.188;-8.642;2022-07-04T10:06:39;29.63;;;22.23;;
20000;SDS011;10161;41.188;-8.642;2022-07-04T10:09:07;30.73;;;23.83;;
20000;SDS011;10161;41.188;-8.642;2022-07-04T10:11:35;34.03;;;24.57;;
20000;SDS011;10161;41.188;-8.642;2022-07-04T10:14:04;33.90;;;25.00;;
20000;SDS011;10161;41.188;-8.642;2022-07-04T10:16:32;38.57;;;25.80;;
20000;SDS011;10161;41.188;-8.642;2022-07-04T10:18:59;30.30;;;23.67;;
20000;SDS011;10161;41.188;-8.642;2022-07-04T10:21:28;30.67;;;22.73;;
20000;SDS011;10161;41.188;-8.642;2022-07-04T10:23:55;35.60;;;26.63;;
20000;SDS011;10161;41.188;-8.642;2022-07-04T10:26:22;38.03;;;27.20;;
20000;SDS011;10161;41.188;-8.642;2022-07-04T10:28:50;30.13;;;24.20;;
20000;SDS011;10161;41.188;-8.642;2022-07-04T10:31:19;36.30;;;25.70;;
20000;SDS011;10161;41.188;-8.642;2022-07-04T10:33:46;36.43;;;26.80;;
20000;SDS011;10161;41.188;-8.642;2022-07-04T10:36:14;38.37;;;26.33;;
20000;SDS011;10161;41.188;-8.642;2022-07-04T10:38:48;40.90;;;26.73;;
20000;SDS011;10161;41.188;-8.642;2022-07-04T10:41:16;42.13;;;28.60;;
20000;SDS011;10161;41.188;-8.642;2022-07-04T10:46:37;38.80;;;27.93;;
20000;SDS011;10161;41.188;-8.642;2022-07-04T10:49:17;44.33;;;27.60;;
20000;SDS011;10161;41.188;-8.642;2022-07-04T10:51:55;36.70;;;26.30;;
20000;SDS011;10161;41.188;-8.642;2022-07-04T10:54:29;37.03;;;27.17;;
20000;SDS011;10161;41.188;-8.642;2022-07-04T10:56:57;33.40;;;24.50;;
20000;SDS011;10161;41.188;-8.642;2022-07-04T10:59:35;42.03;;;25.57;;
20000;SDS011;10161;41.188;-8.642;2022-07-04T11:02:21;34.50;;;25.50;;
20000;SDS011;10161;41.188;-8.642;2022-07-04T11:05:05;34.10;;;24.83;;
20000;SDS011;10161;41.188;-8.642;2022-07-04T11:10:27;34.63;;;24.70;;
20000;SDS011;10161;41.188;-8.642;2022-07-04T11:13:15;32.30;;;23.20;;
20000;SDS011;10161;41.188;-8.642;2022-07-04T11:15:59;34.50;;;25.07;;
20000;SDS011;10161;41.188;-8.642;2022-07-04T11:18:38;31.53;;;24.93;;
20000;SDS011;10161;41.188;-8.642;2022-07-04T11:21:14;32.10;;;23.83;;
20000;SDS011;10161;41.188;-8.642;2022-07-04T11:23:50;36.53;;;26.97;;
20000;SDS011;10161;41.188;-8.642;2022-07-04T11:26:20;32.33;;;24.30;;
20000;SDS011;10161;41.188;-8.642;2022-07-04T11:28:49;34.57;;;26.20;;
20000;SDS011;10161;41.188;-8.642;2022-07-04T11:31:16;27.80;;;23.37;;
20000;SDS011;10161;41.188;-8.642;2022-07-04T11:33:44;28.53;;;22.70;;
20000;SDS011;10161;41.188;-8.642;2022-07-04T11:36:12;31.30;;;24.20;;
20000;SDS011;10161;41.188;-8.642;2022-07-04T11:41:30;28.03;;;22.47;;
20000;SDS011;10161;41.188;-8.642;2022-07-04T11:44:16;33.80;;;23.43;;
20000;SDS011;10161;41.188;-8.642;2022-07-04T11:47:05;30.67;;;23.30;;
20000;SDS011;10161;41.188;-8.642;2022-07-04T11:49:34;33.80;;;24.90;;
20000;SDS011;10161;41.188;-8.642;2022-07-04T11:52:01;29.77;;;22.83;;
20000;SDS011;10161;41.188;-8.642;2022-07-04T11:54:32;28.27;;;22.27;;
20000;SDS011;10161;41.188;-8.642;2022-07-04T11:59:58;27.00;;;21.57;;
20000;SDS011;10161;41.188;-8.642;2022-07-04T12:05:43;32.13;;;24.80;;
20000;SDS011;10161;41.188;-8.642;2022-07-04T12:08:13;31.93;;;25.37;;
20000;SDS011;10161;41.188;-8.642;2022-07-04T12:10:40;33.10;;;26.30;;
20000;SDS011;10161;41.188;-8.642;2022-07-04T12:13:14;30.40;;;26.13;;
20000;SDS011;10161;41.188;-8.642;2022-07-04T12:15:43;39.60;;;28.90;;
20000;SDS011;10161;41.188;-8.642;2022-07-04T12:18:20;28.50;;;23.00;;
20000;SDS011;10161;41.188;-8.642;2022-07-04T12:20:48;33.50;;;26.00;;
20000;SDS011;10161;41.188;-8.642;2022-07-04T12:23:16;31.97;;;24.90;;
20000;SDS011;10161;41.188;-8.642;2022-07-04T12:25:45;32.30;;;26.20;;
20000;SDS011;10161;41.188;-8.642;2022-07-04T12:28:15;34.53;;;25.27;;
20000;SDS011;10161;41.188;-8.642;2022-07-04T12:30:48;33.27;;;25.10;;
20000;SDS011;10161;41.188;-8.642;2022-07-04T12:33:17;35.57;;;25.63;;
20000;SDS011;10161;41.188;-8.642;2022-07-04T12:35:46;31.17;;;24.43;;
20000;SDS011;10161;41.188;-8.642;2022-07-04T12:38:14;31.87;;;24.73;;
20000;SDS011;10161;41.188;-8.642;2022-07-04T12:40:52;37.23;;;26.40;;
20000;SDS011;10161;41.188;-8.642;2022-07-04T12:43:23;30.73;;;25.77;;
20000;SDS011;10161;41.188;-8.642;2022-07-04T12:45:51;34.07;;;25.47;;
20000;SDS011;10161;41.188;-8.642;2022-07-04T12:48:22;29.40;;;23.33;;
20000;SDS011;10161;41.188;-8.642;2022-07-04T12:50:50;28.90;;;22.80;;
20000;SDS011;10161;41.188;-8.642;2022-07-04T12:53:17;25.93;;;20.57;;
20000;SDS011;10161;41.188;-8.642;2022-07-04T12:55:45;25.13;;;18.77;;
20000;SDS011;10161;41.188;-8.642;2022-07-04T12:58:13;31.87;;;20.20;;
20000;SDS011;10161;41.188;-8.642;2022-07-04T13:00:42;20.17;;;15.73;;
20000;SDS011;10161;41.188;-8.642;2022-07-04T13:03:11;16.43;;;13.50;;
20000;SDS011;10161;41.188;-8.642;2022-07-04T13:05:38;17.60;;;13.30;;
20000;SDS011;10161;41.188;-8.642;2022-07-04T13:08:06;13.83;;;11.97;;
20000;SDS011;10161;41.188;-8.642;2022-07-04T13:10:33;14.60;;;13.00;;
20000;SDS011;10161;41.188;-8.642;2022-07-04T13:13:00;14.60;;;12.70;;
20000;SDS011;10161;41.188;-8.642;2022-07-04T13:15:27;15.07;;;12.83;;
20000;SDS011;10161;41.188;-8.642;2022-07-04T13:17:56;14.20;;;12.23;;
20000;SDS011;10161;41.188;-8.642;2022-07-04T13:20:23;14.23;;;11.73;;
20000;SDS011;10161;41.188;-8.642;2022-07-04T13:22:52;16.30;;;13.00;;
20000;SDS011;10161;41.188;-8.642;2022-07-04T13:25:19;19.80;;;12.90;;
20000;SDS011;10161;41.188;-8.642;2022-07-04T13:27:47;14.97;;;11.03;;
20000;SDS011;10161;41.188;-8.642;2022-07-04T13:32:45;19.37;;;14.00;;
20000;SDS011;10161;41.188;-8.642;2022-07-04T13:35:13;17.43;;;12.20;;
20000;SDS011;10161;41.188;-8.642;2022-07-04T13:37:40;18.47;;;12.43;;
20000;SDS011;10161;41.188;-8.642;2022-07-04T13:40:08;23.50;;;12.90;;
20000;SDS011;10161;41.188;-8.642;2022-07-04T13:42:35;18.43;;;12.97;;
20000;SDS011;10161;41.188;-8.642;2022-07-04T13:45:20;23.33;;;14.13;;
20000;SDS011;10161;41.188;-8.642;2022-07-04T13:47:47;13.77;;;11.03;;
20000;SDS011;10161;41.188;-8.642;2022-07-04T13:50:15;18.37;;;12.50;;
20000;SDS011;10161;41.188;-8.642;2022-07-04T13:52:42;16.40;;;11.70;;
20000;SDS011;10161;41.188;-8.642;2022-07-04T13:55:09;22.80;;;12.80;;
20000;SDS011;10161;41.188;-8.642;2022-07-04T13:57:37;22.50;;;14.23;;
20000;SDS011;10161;41.188;-8.642;2022-07-04T14:00:05;17.57;;;11.03;;
20000;SDS011;10161;41.188;-8.642;2022-07-04T14:02:33;18.63;;;12.03;;
20000;SDS011;10161;41.188;-8.642;2022-07-04T14:05:00;21.37;;;13.83;;
20000;SDS011;10161;41.188;-8.642;2022-07-04T14:07:28;14.17;;;11.20;;
20000;SDS011;10161;41.188;-8.642;2022-07-04T14:09:55;19.83;;;14.83;;
20000;SDS011;10161;41.188;-8.642;2022-07-04T14:12:22;19.07;;;13.60;;
20000;SDS011;10161;41.188;-8.642;2022-07-04T14:14:49;21.30;;;13.37;;
20000;SDS011;10161;41.188;-8.642;2022-07-04T14:17:16;17.23;;;11.50;;
20000;SDS011;10161;41.188;-8.642;2022-07-04T14:19:43;20.23;;;14.90;;
20000;SDS011;10161;41.188;-8.642;2022-07-04T14:22:10;12.57;;;10.93;;
20000;SDS011;10161;41.188;-8.642;2022-07-04T14:24:39;19.47;;;11.00;;
20000;SDS011;10161;41.188;-8.642;2022-07-04T14:27:06;18.00;;;10.70;;
20000;SDS011;10161;41.188;-8.642;2022-07-04T14:29:32;18.30;;;11.00;;
20000;SDS011;10161;41.188;-8.642;2022-07-04T14:32:00;14.73;;;10.70;;
20000;SDS011;10161;41.188;-8.642;2022-07-04T14:34:27;18.77;;;13.30;;
20000;SDS011;10161;41.188;-8.642;2022-07-04T14:36:54;17.50;;;12.40;;
20000;SDS011;10161;41.188;-8.642;2022-07-04T14:39:21;21.07;;;13.17;;
20000;SDS011;10161;41.188;-8.642;2022-07-04T14:41:49;20.30;;;13.97;;
20000;SDS011;10161;41.188;-8.642;2022-07-04T14:44:18;16.10;;;12.60;;
20000;SDS011;10161;41.188;-8.642;2022-07-04T14:46:45;17.70;;;12.40;;
20000;SDS011;10161;41.188;-8.642;2022-07-04T14:49:12;14.70;;;12.93;;
20000;SDS011;10161;41.188;-8.642;2022-07-04T14:51:39;13.97;;;11.00;;
20000;SDS011;10161;41.188;-8.642;2022-07-04T14:54:06;17.33;;;12.03;;
20000;SDS011;10161;41.188;-8.642;2022-07-04T14:56:33;13.27;;;11.37;;
20000;SDS011;10161;41.188;-8.642;2022-07-04T14:59:01;13.27;;;10.33;;
20000;SDS011;10161;41.188;-8.642;2022-07-04T15:01:29;13.33;;;10.73;;
20000;SDS011;10161;41.188;-8.642;2022-07-04T15:03:57;14.67;;;10.27;;